createdAt,value
2018-01-14T00:01:02.883Z,15.30
2018-01-14T00:03:30.350Z,15.40
2018-01-14T00:05:57.843Z,18.90
2018-01-14T00:08:25.304Z,13.03
2018-01-14T00:10:52.783Z,15.73
2018-01-14T00:13:20.260Z,16.73
2018-01-14T00:15:47.746Z,16.37
2018-01-14T00:18:15.213Z,16.43
2018-01-14T00:20:42.691Z,15.53
2018-01-14T00:23:10.159Z,15.83
2018-01-14T00:25:38.410Z,18.83
2018-01-14T00:28:05.874Z,16.40
2018-01-14T00:30:33.354Z,17.80
2018-01-14T00:33:01.590Z,16.30
2018-01-14T00:35:29.074Z,17.70
2018-01-14T00:37:56.542Z,15.53
2018-01-14T00:40:24.027Z,16.70
2018-01-14T00:42:51.546Z,18.50
2018-01-14T00:45:18.999Z,16.13
2018-01-14T00:47:46.467Z,18.23
2018-01-14T00:50:13.945Z,15.60
2018-01-14T00:52:42.181Z,16.60
2018-01-14T00:55:09.659Z,14.40
2018-01-14T00:57:37.140Z,19.63
2018-01-14T01:00:05.388Z,17.97
2018-01-14T01:02:32.855Z,17.07
2018-01-14T01:05:00.336Z,14.93
2018-01-14T01:07:28.567Z,15.30
2018-01-14T01:09:56.052Z,18.10
2018-01-14T01:12:24.290Z,16.27
2018-01-14T01:14:51.782Z,15.37
2018-01-14T01:17:19.251Z,15.57
2018-01-14T01:19:47.501Z,18.50
2018-01-14T01:22:14.971Z,14.93
2018-01-14T01:24:42.446Z,17.50
2018-01-14T01:27:10.679Z,17.03
2018-01-14T01:29:38.147Z,18.50
2018-01-14T01:32:05.630Z,19.20
2018-01-14T01:34:33.101Z,15.90
2018-01-14T01:37:01.353Z,18.03
2018-01-14T01:39:28.824Z,18.73
2018-01-14T01:41:57.068Z,16.60
2018-01-14T01:44:24.560Z,20.33
2018-01-14T01:46:52.794Z,19.63
2018-01-14T01:49:20.262Z,17.43
2018-01-14T01:51:47.746Z,18.07
2018-01-14T01:54:15.981Z,16.17
2018-01-14T01:56:43.455Z,18.50
2018-01-14T01:59:10.925Z,16.03
2018-01-14T02:01:38.416Z,20.07
2018-01-14T02:04:06.655Z,19.17
2018-01-14T02:06:34.135Z,20.47
2018-01-14T02:09:02.387Z,17.63
2018-01-14T02:11:30.632Z,18.93
2018-01-14T02:13:58.105Z,17.60
2018-01-14T02:16:26.350Z,19.10
2018-01-14T02:18:53.818Z,17.70
2018-01-14T02:21:21.295Z,20.27
2018-01-14T02:23:48.765Z,17.50
2018-01-14T02:26:16.242Z,17.10
2018-01-14T02:28:43.721Z,15.33
2018-01-14T02:31:11.962Z,16.27
2018-01-14T02:33:39.432Z,17.20
2018-01-14T02:36:06.918Z,19.67
2018-01-14T02:38:35.159Z,21.03
2018-01-14T02:41:02.639Z,17.30
2018-01-14T02:43:30.875Z,17.20
2018-01-14T02:45:58.354Z,21.90
2018-01-14T02:48:25.831Z,16.87
2018-01-14T02:50:54.083Z,15.50
2018-01-14T02:53:21.554Z,18.50
2018-01-14T02:55:49.036Z,15.80
2018-01-14T02:58:17.267Z,15.60
2018-01-14T03:00:44.753Z,18.93
2018-01-14T03:03:12.222Z,20.97
2018-01-14T03:05:40.474Z,16.27
2018-01-14T03:08:07.959Z,19.27
2018-01-14T03:10:36.195Z,16.30
2018-01-14T03:13:04.429Z,21.77
2018-01-14T03:15:39.821Z,21.57
2018-01-14T03:18:07.282Z,23.67
2018-01-14T03:20:34.757Z,23.37
2018-01-14T03:23:04.987Z,24.23
2018-01-14T03:25:32.450Z,27.43
2018-01-14T03:28:00.690Z,27.03
2018-01-14T03:30:28.157Z,28.67
2018-01-14T03:32:55.694Z,29.37
2018-01-14T03:35:23.167Z,25.27
2018-01-14T03:37:50.642Z,27.60
2018-01-14T03:40:18.111Z,30.30
2018-01-14T03:42:46.355Z,31.63
2018-01-14T03:45:13.818Z,31.53
2018-01-14T03:47:41.298Z,32.40
2018-01-14T03:50:09.528Z,30.60
2018-01-14T03:52:37.004Z,31.10
2018-01-14T03:55:04.477Z,35.50
2018-01-14T03:57:31.959Z,38.47
2018-01-14T04:00:00.198Z,32.33
2018-01-14T04:02:27.670Z,31.47
2018-01-14T04:04:55.146Z,34.77
2018-01-14T04:07:23.386Z,35.47
2018-01-14T04:09:50.846Z,32.00
2018-01-14T04:12:18.309Z,30.57
2018-01-14T04:14:45.778Z,33.20
2018-01-14T04:17:13.961Z,33.07
2018-01-14T04:19:41.439Z,29.90
2018-01-14T04:22:09.674Z,34.60
2018-01-14T04:24:37.132Z,36.70
2018-01-14T04:27:04.605Z,32.20
2018-01-14T04:29:32.070Z,37.50
2018-01-14T04:32:00.315Z,32.77
2018-01-14T04:34:27.775Z,37.27
2018-01-14T04:36:55.248Z,38.70
2018-01-14T04:39:22.712Z,37.47
2018-01-14T04:41:50.190Z,34.27
2018-01-14T04:44:18.422Z,35.70
2018-01-14T04:46:45.897Z,34.70
2018-01-14T04:49:13.382Z,41.53
2018-01-14T04:51:41.624Z,40.80
2018-01-14T04:54:09.093Z,36.47
2018-01-14T04:56:36.574Z,37.83
2018-01-14T04:59:04.802Z,47.77
2018-01-14T05:01:32.278Z,36.77
2018-01-14T05:03:59.758Z,39.20
2018-01-14T05:06:28.004Z,37.87
2018-01-14T05:08:55.460Z,37.17
2018-01-14T05:11:22.925Z,38.70
2018-01-14T05:13:50.403Z,38.27
2018-01-14T05:16:17.889Z,42.47
2018-01-14T05:18:45.359Z,37.17
2018-01-14T05:21:12.836Z,46.03
2018-01-14T05:23:40.297Z,35.33
2018-01-14T05:26:07.774Z,38.23
2018-01-14T05:28:35.240Z,42.73
2018-01-14T05:31:02.721Z,44.40
2018-01-14T05:33:30.941Z,39.93
2018-01-14T05:35:58.416Z,44.73
2018-01-14T05:38:25.888Z,38.47
2018-01-14T05:40:53.361Z,41.60
2018-01-14T05:43:21.614Z,38.70
2018-01-14T05:45:49.087Z,39.27
2018-01-14T05:48:16.550Z,42.40
2018-01-14T05:50:44.018Z,37.13
2018-01-14T05:53:12.270Z,39.37
2018-01-14T05:55:39.741Z,37.37
2018-01-14T05:58:07.223Z,42.83
2018-01-14T06:00:34.684Z,42.47
2018-01-14T06:03:02.162Z,41.67
2018-01-14T06:05:29.626Z,42.57
2018-01-14T06:07:57.106Z,42.87
2018-01-14T06:10:24.579Z,41.27
2018-01-14T06:12:52.063Z,42.77
2018-01-14T06:15:20.307Z,45.37
2018-01-14T06:17:47.774Z,42.30
2018-01-14T06:20:15.251Z,43.80
2018-01-14T06:22:43.494Z,46.30
2018-01-14T06:25:10.965Z,49.30
2018-01-14T06:27:38.446Z,43.23
2018-01-14T06:30:06.683Z,50.70
2018-01-14T06:32:34.150Z,48.23
2018-01-14T06:35:01.649Z,35.83
2018-01-14T06:37:29.135Z,41.50
2018-01-14T06:39:56.602Z,40.60
2018-01-14T06:42:24.080Z,41.80
2018-01-14T06:44:51.551Z,45.90
2018-01-14T06:47:19.022Z,47.00
2018-01-14T06:49:47.254Z,43.57
2018-01-14T06:52:14.727Z,47.93
2018-01-14T06:54:42.214Z,43.77
2018-01-14T06:57:09.678Z,46.20
2018-01-14T06:59:37.918Z,46.20
2018-01-14T07:02:05.397Z,50.73
2018-01-14T07:04:32.861Z,44.13
2018-01-14T07:07:01.112Z,47.50
2018-01-14T07:09:28.574Z,45.77
2018-01-14T07:11:56.054Z,42.73
2018-01-14T07:14:24.333Z,44.63
2018-01-14T07:16:52.581Z,46.70
2018-01-14T07:19:20.050Z,46.10
2018-01-14T07:21:47.514Z,43.27
2018-01-14T07:24:14.974Z,48.30
2018-01-14T07:26:42.498Z,53.60
2018-01-14T07:29:09.969Z,46.00
2018-01-14T07:31:37.450Z,45.93
2018-01-14T07:34:04.921Z,51.13
2018-01-14T07:36:33.154Z,45.63
2018-01-14T07:39:00.638Z,46.80
2018-01-14T07:41:28.110Z,45.60
2018-01-14T07:43:56.355Z,54.63
2018-01-14T07:46:23.837Z,48.90
2018-01-14T07:48:51.315Z,53.23
2018-01-14T07:51:19.542Z,52.63
2018-01-14T07:53:47.019Z,50.42
2018-01-14T07:56:14.490Z,47.90
2018-01-14T07:58:42.732Z,44.28
2018-01-14T08:01:10.206Z,50.10
2018-01-14T08:03:37.694Z,50.47
2018-01-14T08:06:05.169Z,48.97
2018-01-14T08:08:32.637Z,53.10
2018-01-14T08:11:00.114Z,58.77
2018-01-14T08:13:27.597Z,52.60
2018-01-14T08:15:55.076Z,55.13
2018-01-14T08:18:23.324Z,56.20
2018-01-14T08:20:50.796Z,55.80
2018-01-14T08:23:18.274Z,52.33
2018-01-14T08:25:46.500Z,49.57
2018-01-14T08:28:13.980Z,50.73
2018-01-14T08:30:41.458Z,48.13
2018-01-14T08:33:09.698Z,52.97
2018-01-14T08:35:37.162Z,47.27
2018-01-14T08:38:04.650Z,50.57
2018-01-14T08:40:32.894Z,53.30
2018-01-14T08:43:00.370Z,54.77
2018-01-14T08:45:27.832Z,52.83
2018-01-14T08:47:55.367Z,58.23
2018-01-14T08:50:22.798Z,73.50
2018-01-14T08:52:50.285Z,56.93
2018-01-14T08:55:17.765Z,56.43
2018-01-14T08:57:46.269Z,52.03
2018-01-14T09:00:16.038Z,54.43
2018-01-14T09:02:44.286Z,48.97
2018-01-14T09:05:11.758Z,50.73
2018-01-14T09:07:39.222Z,54.27
2018-01-14T09:10:06.703Z,54.33
2018-01-14T09:12:34.184Z,54.07
2018-01-14T09:15:02.437Z,51.77
2018-01-14T09:17:29.922Z,47.73
2018-01-14T09:19:58.160Z,54.70
2018-01-14T09:22:25.655Z,49.27
2018-01-14T09:24:53.899Z,44.70
2018-01-14T09:27:21.554Z,46.37
2018-01-14T09:29:49.025Z,52.30
2018-01-14T09:32:16.519Z,57.83
2018-01-14T09:34:43.982Z,51.37
2018-01-14T09:37:11.562Z,47.13
2018-01-14T09:39:39.048Z,39.33
2018-01-14T09:42:06.522Z,49.83
2018-01-14T09:44:34.006Z,56.73
2018-01-14T09:47:02.266Z,50.27
2018-01-14T09:49:29.763Z,48.33
2018-01-14T09:51:57.230Z,50.03
2018-01-14T09:54:24.706Z,45.83
2018-01-14T09:56:52.169Z,47.67
2018-01-14T09:59:19.662Z,52.57
2018-01-14T10:01:47.912Z,52.77
2018-01-14T10:04:15.385Z,46.40
2018-01-14T10:06:43.639Z,45.73
2018-01-14T10:09:11.115Z,43.80
2018-01-14T10:11:38.590Z,50.77
2018-01-14T10:14:06.840Z,45.37
2018-01-14T10:16:34.311Z,49.97
2018-01-14T10:19:01.781Z,52.40
2018-01-14T10:21:30.032Z,46.73
2018-01-14T10:23:57.505Z,48.87
2018-01-14T10:26:24.966Z,48.40
2018-01-14T10:28:52.439Z,50.43
2018-01-14T10:31:20.673Z,49.97
2018-01-14T10:33:48.166Z,51.33
2018-01-14T10:36:17.222Z,51.90
2018-01-14T10:38:44.698Z,50.03
2018-01-14T10:41:12.163Z,49.33
2018-01-14T10:43:39.638Z,46.57
2018-01-14T10:46:07.867Z,47.97
2018-01-14T10:48:35.334Z,53.73
2018-01-14T10:51:02.817Z,46.90
2018-01-14T10:53:30.290Z,56.87
2018-01-14T10:55:58.519Z,49.50
2018-01-14T10:58:26.007Z,47.37
2018-01-14T11:00:58.321Z,47.73
2018-01-14T11:03:25.838Z,45.87
2018-01-14T11:05:53.302Z,49.83
2018-01-14T11:08:20.787Z,47.73
2018-01-14T11:10:48.257Z,53.00
2018-01-14T11:13:15.748Z,45.13
2018-01-14T11:15:43.221Z,47.07
2018-01-14T11:18:10.682Z,47.40
2018-01-14T11:20:38.156Z,40.50
2018-01-14T11:23:05.638Z,49.07
2018-01-14T11:25:33.118Z,45.40
2018-01-14T11:28:00.594Z,49.90
2018-01-14T11:30:28.058Z,47.97
2018-01-14T11:32:55.541Z,45.17
2018-01-14T11:35:23.779Z,47.63
2018-01-14T11:37:51.242Z,48.93
2018-01-14T11:40:18.718Z,62.23
2018-01-14T11:42:46.197Z,46.20
2018-01-14T11:45:14.444Z,42.07
2018-01-14T11:47:41.923Z,42.57
2018-01-14T11:50:09.395Z,40.80
2018-01-14T11:52:37.631Z,45.17
2018-01-14T11:55:05.111Z,41.17
2018-01-14T11:57:32.584Z,49.70
2018-01-14T12:00:00.823Z,42.23
2018-01-14T12:02:28.294Z,44.00
2018-01-14T12:04:55.778Z,40.37
2018-01-14T12:07:24.014Z,44.37
2018-01-14T12:09:51.498Z,40.47
2018-01-14T12:12:18.986Z,44.37
2018-01-14T12:14:47.314Z,46.93
2018-01-14T12:17:14.799Z,49.40
2018-01-14T12:19:42.263Z,38.17
2018-01-14T12:22:10.497Z,45.40
2018-01-14T12:24:37.981Z,38.47
2018-01-14T12:27:06.350Z,46.67
2018-01-14T12:29:33.829Z,45.70
2018-01-14T12:32:02.066Z,45.93
2018-01-14T12:34:39.439Z,36.63
2018-01-14T12:37:07.001Z,44.83
2018-01-14T12:39:34.542Z,46.67
2018-01-14T12:42:02.550Z,43.83
2018-01-14T12:44:30.192Z,41.90
2018-01-14T12:46:57.658Z,47.20
2018-01-14T12:49:25.143Z,45.53
2018-01-14T12:51:53.358Z,45.17
2018-01-14T12:54:20.847Z,41.20
2018-01-14T12:56:48.314Z,44.53
2018-01-14T12:59:15.802Z,38.60
2018-01-14T13:01:43.265Z,43.07
2018-01-14T13:04:11.517Z,40.80
2018-01-14T13:06:38.978Z,47.47
2018-01-14T13:09:06.445Z,46.07
2018-01-14T13:11:33.910Z,42.37
2018-01-14T13:14:01.387Z,43.20
2018-01-14T13:16:29.625Z,42.67
2018-01-14T13:18:57.100Z,41.80
2018-01-14T13:21:24.581Z,42.77
2018-01-14T13:23:52.830Z,44.50
2018-01-14T13:26:20.296Z,41.27
2018-01-14T13:28:47.769Z,48.80
2018-01-14T13:31:16.009Z,48.33
2018-01-14T13:33:44.244Z,45.37
2018-01-14T13:36:11.714Z,44.97
2018-01-14T13:38:39.198Z,41.87
2018-01-14T13:41:06.714Z,52.47
2018-01-14T13:43:34.178Z,46.53
2018-01-14T13:46:01.664Z,42.90
2018-01-14T13:48:29.143Z,49.10
2018-01-14T13:50:56.684Z,43.80
2018-01-14T13:53:24.174Z,47.70
2018-01-14T13:55:51.646Z,48.80
2018-01-14T13:58:19.885Z,43.77
2018-01-14T14:00:47.369Z,42.10
2018-01-14T14:03:14.831Z,41.77
2018-01-14T14:05:43.081Z,44.93
2018-01-14T14:08:10.631Z,46.33
2018-01-14T14:10:38.182Z,41.30
2018-01-14T14:13:05.658Z,43.63
2018-01-14T14:15:33.898Z,43.40
2018-01-14T14:18:01.369Z,46.33
2018-01-14T14:20:28.843Z,43.83
2018-01-14T14:22:56.324Z,42.07
2018-01-14T14:25:23.796Z,42.47
2018-01-14T14:27:52.042Z,50.33
2018-01-14T14:30:19.535Z,42.23
2018-01-14T14:32:47.761Z,44.53
2018-01-14T14:35:15.249Z,44.77
2018-01-14T14:37:42.717Z,40.80
2018-01-14T14:40:10.203Z,37.33
2018-01-14T14:42:37.671Z,43.50
2018-01-14T14:45:05.141Z,42.00
2018-01-14T14:47:32.606Z,47.07
2018-01-14T14:50:00.093Z,42.93
2018-01-14T14:52:27.550Z,44.97
2018-01-14T14:54:55.030Z,44.00
2018-01-14T14:57:23.270Z,44.40
2018-01-14T14:59:50.747Z,41.70
2018-01-14T15:02:18.215Z,43.47
2018-01-14T15:04:45.697Z,43.67
2018-01-14T15:07:13.930Z,42.30
2018-01-14T15:09:42.161Z,44.03
2018-01-14T15:12:09.654Z,46.77
2018-01-14T15:14:37.150Z,46.53
2018-01-14T15:17:04.595Z,51.10
2018-01-14T15:19:32.073Z,42.73
2018-01-14T15:22:00.313Z,40.70
2018-01-14T15:24:27.878Z,45.20
2018-01-14T15:26:55.367Z,46.30
2018-01-14T15:29:23.601Z,42.50
2018-01-14T15:31:51.080Z,43.80
2018-01-14T15:34:18.553Z,39.93
2018-01-14T15:36:46.808Z,39.70
2018-01-14T15:39:14.444Z,42.60
2018-01-14T15:41:41.933Z,44.37
2018-01-14T15:44:09.411Z,47.60
2018-01-14T15:46:37.646Z,46.40
2018-01-14T15:49:05.111Z,45.73
2018-01-14T15:51:32.592Z,47.90
2018-01-14T15:54:00.068Z,44.70
2018-01-14T15:56:28.318Z,49.60
2018-01-14T15:58:55.781Z,41.90
2018-01-14T16:01:23.295Z,45.80
2018-01-14T16:03:51.858Z,44.47
2018-01-14T16:06:19.338Z,47.07
2018-01-14T16:08:46.802Z,43.13
2018-01-14T16:11:14.292Z,43.97
2018-01-14T16:13:44.076Z,46.87
2018-01-14T16:16:11.562Z,46.83
2018-01-14T16:18:39.058Z,46.50
2018-01-14T16:21:07.352Z,43.13
2018-01-14T16:23:36.325Z,45.20
2018-01-14T16:26:03.811Z,55.77
2018-01-14T16:28:31.282Z,47.57
2018-01-14T16:30:58.759Z,44.80
2018-01-14T16:33:26.677Z,45.03
2018-01-14T16:35:54.157Z,38.30
2018-01-14T16:38:21.633Z,48.10
2018-01-14T16:40:49.126Z,44.93
2018-01-14T16:43:17.345Z,40.80
2018-01-14T16:45:44.826Z,42.40
2018-01-14T16:48:13.206Z,46.60
2018-01-14T16:50:40.683Z,46.87
2018-01-14T16:53:08.175Z,48.00
2018-01-14T16:55:38.367Z,44.23
2018-01-14T16:58:06.447Z,51.47
2018-01-14T17:00:33.917Z,41.70
2018-01-14T17:03:02.154Z,46.17
2018-01-14T17:05:29.637Z,46.57
2018-01-14T17:07:57.148Z,41.60
2018-01-14T17:10:24.746Z,45.67
2018-01-14T17:12:52.069Z,40.80
2018-01-14T17:15:19.554Z,45.00
2018-01-14T17:17:49.073Z,44.23
2018-01-14T17:20:16.545Z,46.33
2018-01-14T17:22:44.798Z,47.57
2018-01-14T17:25:12.485Z,42.30
2018-01-14T17:27:40.720Z,40.90
2018-01-14T17:30:08.212Z,44.00
2018-01-14T17:32:36.437Z,43.80
2018-01-14T17:35:03.940Z,40.93
2018-01-14T17:37:31.402Z,41.30
2018-01-14T17:39:59.659Z,39.00
2018-01-14T17:42:27.122Z,42.93
2018-01-14T17:44:54.600Z,43.43
2018-01-14T17:47:22.838Z,43.70
2018-01-14T17:49:50.323Z,39.43
2018-01-14T17:52:17.790Z,37.53
2018-01-14T17:54:46.026Z,45.00
2018-01-14T17:57:13.567Z,41.47
2018-01-14T17:59:41.758Z,43.70
2018-01-14T18:02:09.230Z,41.13
2018-01-14T18:04:36.701Z,37.33
2018-01-14T18:07:04.178Z,34.97
2018-01-14T18:09:32.414Z,38.87
2018-01-14T18:11:59.891Z,42.27
2018-01-14T18:14:27.352Z,35.97
2018-01-14T18:17:00.458Z,41.63
2018-01-14T18:19:28.711Z,38.13
2018-01-14T18:21:56.178Z,42.60
2018-01-14T18:24:23.667Z,39.77
2018-01-14T18:26:51.128Z,42.90
2018-01-14T18:29:18.606Z,39.13
2018-01-14T18:31:46.090Z,38.70
2018-01-14T18:34:13.554Z,41.30
2018-01-14T18:36:41.038Z,39.60
2018-01-14T18:39:09.274Z,38.03
2018-01-14T18:41:36.754Z,38.30
2018-01-14T18:44:04.230Z,38.77
2018-01-14T18:46:32.479Z,40.63
2018-01-14T18:48:59.938Z,38.77
2018-01-14T18:51:27.419Z,42.00
2018-01-14T18:53:55.693Z,47.83
2018-01-14T18:56:23.150Z,41.60
2018-01-14T18:58:51.390Z,38.83
2018-01-14T19:01:18.866Z,38.73
2018-01-14T19:03:46.338Z,42.40
2018-01-14T19:06:13.814Z,40.37
2018-01-14T19:08:42.053Z,42.13
2018-01-14T19:11:09.529Z,39.77
2018-01-14T19:13:36.993Z,43.27
2018-01-14T19:16:05.235Z,39.63
2018-01-14T19:18:32.712Z,42.60
2018-01-14T19:21:00.189Z,47.30
2018-01-14T19:23:28.461Z,39.53
2018-01-14T19:25:55.945Z,34.27
2018-01-14T19:28:24.170Z,39.93
2018-01-14T19:30:52.422Z,43.90
2018-01-14T19:33:19.894Z,41.90
2018-01-14T19:35:47.378Z,42.17
2018-01-14T19:38:14.857Z,41.90
2018-01-14T19:40:43.101Z,44.00
2018-01-14T19:43:10.571Z,40.67
2018-01-14T19:45:38.046Z,37.07
2018-01-14T19:48:06.284Z,42.80
2018-01-14T19:50:33.767Z,39.50
2018-01-14T19:53:01.242Z,41.53
2018-01-14T19:55:29.484Z,40.67
2018-01-14T19:57:56.954Z,40.80
2018-01-14T20:00:24.419Z,41.20
2018-01-14T20:02:51.898Z,46.07
2018-01-14T20:05:20.146Z,40.23
2018-01-14T20:07:47.629Z,39.87
2018-01-14T20:10:15.867Z,39.00
2018-01-14T20:12:43.346Z,41.63
2018-01-14T20:15:10.815Z,44.80
2018-01-14T20:17:39.060Z,37.83
2018-01-14T20:20:06.527Z,40.63
2018-01-14T20:22:34.022Z,38.00
2018-01-14T20:25:02.255Z,39.87
2018-01-14T20:27:29.730Z,44.07
2018-01-14T20:29:57.263Z,39.07
2018-01-14T20:32:24.746Z,40.23
2018-01-14T20:34:52.208Z,40.87
2018-01-14T20:37:20.462Z,39.30
2018-01-14T20:39:47.930Z,41.63
2018-01-14T20:42:15.405Z,41.83
2018-01-14T20:44:49.233Z,39.33
2018-01-14T20:47:16.718Z,35.80
2018-01-14T20:49:44.199Z,38.63
2018-01-14T20:52:12.461Z,41.70
2018-01-14T20:54:39.974Z,39.73
2018-01-14T20:57:08.248Z,43.53
2018-01-14T20:59:36.477Z,39.87
2018-01-14T21:02:03.967Z,40.93
2018-01-14T21:04:31.437Z,43.13
2018-01-14T21:06:59.693Z,43.27
2018-01-14T21:09:27.157Z,42.20
2018-01-14T21:11:54.634Z,46.60
2018-01-14T21:14:22.883Z,37.37
2018-01-14T21:16:50.354Z,40.50
2018-01-14T21:19:18.611Z,39.70
2018-01-14T21:21:46.098Z,40.30
2018-01-14T21:24:14.385Z,42.13
2018-01-14T21:26:41.823Z,43.60
2018-01-14T21:29:09.290Z,38.80
2018-01-14T21:31:37.543Z,36.03
2018-01-14T21:34:05.014Z,34.43
2018-01-14T21:36:33.270Z,41.23
2018-01-14T21:39:00.733Z,38.23
2018-01-14T21:41:28.222Z,41.60
2018-01-14T21:43:56.462Z,41.43
2018-01-14T21:46:23.941Z,42.40
2018-01-14T21:48:51.422Z,39.53
2018-01-14T21:51:18.891Z,37.43
2018-01-14T21:53:46.374Z,38.17
2018-01-14T21:56:13.855Z,39.47
2018-01-14T21:58:41.329Z,32.43
2018-01-14T22:01:08.798Z,36.07
2018-01-14T22:03:37.044Z,25.00
2018-01-14T22:06:04.527Z,22.87
2018-01-14T22:08:32.778Z,27.13
2018-01-14T22:11:00.241Z,31.40
2018-01-14T22:13:27.723Z,32.00
2018-01-14T22:15:55.959Z,35.80
2018-01-14T22:18:23.435Z,27.17
2018-01-14T22:20:50.900Z,25.97
2018-01-14T22:23:18.387Z,26.40
2018-01-14T22:25:46.622Z,24.63
2018-01-14T22:28:14.110Z,27.93
2018-01-14T22:30:42.354Z,30.07
2018-01-14T22:33:09.841Z,29.10
2018-01-14T22:35:38.083Z,29.23
2018-01-14T22:38:05.592Z,26.37
2018-01-14T22:40:33.067Z,29.70
2018-01-14T22:43:00.555Z,24.57
2018-01-14T22:45:28.026Z,22.00
2018-01-14T22:47:55.503Z,22.17
2018-01-14T22:50:23.742Z,19.13
2018-01-14T22:52:51.221Z,19.83
2018-01-14T22:55:18.705Z,24.40
2018-01-14T22:57:46.951Z,21.33
2018-01-14T23:00:14.426Z,21.20
2018-01-14T23:02:41.898Z,20.60
2018-01-14T23:05:10.129Z,22.57
2018-01-14T23:07:37.615Z,20.37
2018-01-14T23:10:05.084Z,20.70
2018-01-14T23:12:33.317Z,23.10
2018-01-14T23:15:06.429Z,21.50
2018-01-14T23:17:33.909Z,19.73
2018-01-14T23:20:02.156Z,21.27
2018-01-14T23:22:29.889Z,19.03
2018-01-14T23:24:58.083Z,18.00
2018-01-14T23:27:25.554Z,18.13
2018-01-14T23:29:53.028Z,19.60
2018-01-14T23:32:20.509Z,18.60
2018-01-14T23:34:48.741Z,19.70
2018-01-14T23:37:16.226Z,20.83
2018-01-14T23:39:44.461Z,20.97
2018-01-14T23:42:11.945Z,20.20
2018-01-14T23:44:39.415Z,20.33
2018-01-14T23:47:06.895Z,18.00
2018-01-14T23:49:35.124Z,20.23
2018-01-14T23:52:02.580Z,20.03
2018-01-14T23:54:30.066Z,19.73
2018-01-14T23:56:58.305Z,18.80
2018-01-14T23:59:25.774Z,19.37
